sensor_id;sensor_type;location;lat;lon;timestamp;temperature;humidity
52016;DHT22;38032;53.326;6.472;2022-11-15T00:02:10;8.90;99.90
52016;DHT22;38032;53.326;6.472;2022-11-15T00:04:36;8.90;99.90
52016;DHT22;38032;53.326;6.472;2022-11-15T00:07:02;8.90;99.90
52016;DHT22;38032;53.326;6.472;2022-11-15T00:09:28;8.90;99.90
52016;DHT22;38032;53.326;6.472;2022-11-15T00:11:54;8.90;99.90
52016;DHT22;38032;53.326;6.472;2022-11-15T00:14:20;8.90;99.90
52016;DHT22;38032;53.326;6.472;2022-11-15T00:16:46;8.90;99.90
52016;DHT22;38032;53.326;6.472;2022-11-15T00:19:11;8.90;99.90
52016;DHT22;38032;53.326;6.472;2022-11-15T00:21:37;8.80;99.90
52016;DHT22;38032;53.326;6.472;2022-11-15T00:24:03;8.80;99.90
52016;DHT22;38032;53.326;6.472;2022-11-15T00:26:29;8.80;99.90
52016;DHT22;38032;53.326;6.472;2022-11-15T00:28:55;8.80;99.90
52016;DHT22;38032;53.326;6.472;2022-11-15T00:31:21;8.70;99.90
52016;DHT22;38032;53.326;6.472;2022-11-15T00:33:47;8.70;99.90
52016;DHT22;38032;53.326;6.472;2022-11-15T00:36:12;8.60;99.90
52016;DHT22;38032;53.326;6.472;2022-11-15T00:38:39;8.60;99.90
52016;DHT22;38032;53.326;6.472;2022-11-15T00:41:06;8.50;99.90
52016;DHT22;38032;53.326;6.472;2022-11-15T00:43:33;8.40;99.90
52016;DHT22;38032;53.326;6.472;2022-11-15T00:45:59;8.40;99.90
52016;DHT22;38032;53.326;6.472;2022-11-15T00:48:25;8.30;99.90
52016;DHT22;38032;53.326;6.472;2022-11-15T00:50:51;8.20;99.90
52016;DHT22;38032;53.326;6.472;2022-11-15T00:53:17;8.20;99.90
52016;DHT22;38032;53.326;6.472;2022-11-15T00:55:43;8.20;99.90
52016;DHT22;38032;53.326;6.472;2022-11-15T00:58:09;8.10;99.90
52016;DHT22;38032;53.326;6.472;2022-11-15T01:00:35;8.10;99.90
52016;DHT22;38032;53.326;6.472;2022-11-15T01:03:01;8.10;99.90
52016;DHT22;38032;53.326;6.472;2022-11-15T01:05:27;8.10;99.90
52016;DHT22;38032;53.326;6.472;2022-11-15T01:07:54;8.10;99.90
52016;DHT22;38032;53.326;6.472;2022-11-15T01:10:21;8.10;99.90
52016;DHT22;38032;53.326;6.472;2022-11-15T01:12:48;8.10;99.90
52016;DHT22;38032;53.326;6.472;2022-11-15T01:15:14;8.10;99.90
52016;DHT22;38032;53.326;6.472;2022-11-15T01:17:40;8.10;99.90
52016;DHT22;38032;53.326;6.472;2022-11-15T01:20:06;8.10;99.90
52016;DHT22;38032;53.326;6.472;2022-11-15T01:22:32;8.20;99.90
52016;DHT22;38032;53.326;6.472;2022-11-15T01:24:58;8.20;99.90
52016;DHT22;38032;53.326;6.472;2022-11-15T01:27:24;8.20;99.90
52016;DHT22;38032;53.326;6.472;2022-11-15T01:29:50;8.30;99.90
52016;DHT22;38032;53.326;6.472;2022-11-15T01:32:16;8.30;99.90
52016;DHT22;38032;53.326;6.472;2022-11-15T01:34:41;8.30;99.90
52016;DHT22;38032;53.326;6.472;2022-11-15T01:37:08;8.30;99.90
52016;DHT22;38032;53.326;6.472;2022-11-15T01:39:33;8.30;99.90
52016;DHT22;38032;53.326;6.472;2022-11-15T01:41:59;8.30;99.90
52016;DHT22;38032;53.326;6.472;2022-11-15T01:44:39;8.30;99.90
52016;DHT22;38032;53.326;6.472;2022-11-15T01:47:11;8.30;99.90
52016;DHT22;38032;53.326;6.472;2022-11-15T01:49:51;8.30;99.90
52016;DHT22;38032;53.326;6.472;2022-11-15T01:52:21;8.30;99.90
52016;DHT22;38032;53.326;6.472;2022-11-15T01:54:52;8.30;99.90
52016;DHT22;38032;53.326;6.472;2022-11-15T01:57:19;8.30;99.90
52016;DHT22;38032;53.326;6.472;2022-11-15T01:59:45;8.40;99.90
52016;DHT22;38032;53.326;6.472;2022-11-15T02:02:12;8.40;99.90
52016;DHT22;38032;53.326;6.472;2022-11-15T02:04:44;8.40;99.90
52016;DHT22;38032;53.326;6.472;2022-11-15T02:07:15;8.40;99.90
52016;DHT22;38032;53.326;6.472;2022-11-15T02:09:44;8.40;99.90
52016;DHT22;38032;53.326;6.472;2022-11-15T02:12:11;8.40;99.90
52016;DHT22;38032;53.326;6.472;2022-11-15T02:14:40;8.40;99.90
52016;DHT22;38032;53.326;6.472;2022-11-15T02:17:22;8.40;99.90
52016;DHT22;38032;53.326;6.472;2022-11-15T02:31:05;8.40;99.90
52016;DHT22;38032;53.326;6.472;2022-11-15T02:33:53;8.40;99.90
52016;DHT22;38032;53.326;6.472;2022-11-15T02:36:48;8.40;99.90
52016;DHT22;38032;53.326;6.472;2022-11-15T02:39:28;8.40;99.90
52016;DHT22;38032;53.326;6.472;2022-11-15T02:42:04;8.40;99.90
52016;DHT22;38032;53.326;6.472;2022-11-15T02:44:53;8.40;99.90
52016;DHT22;38032;53.326;6.472;2022-11-15T02:47:22;8.30;99.90
52016;DHT22;38032;53.326;6.472;2022-11-15T02:49:53;8.30;99.90
52016;DHT22;38032;53.326;6.472;2022-11-15T02:52:21;8.40;99.90
52016;DHT22;38032;53.326;6.472;2022-11-15T02:54:58;8.40;99.90
52016;DHT22;38032;53.326;6.472;2022-11-15T02:57:45;8.40;99.90
52016;DHT22;38032;53.326;6.472;2022-11-15T03:00:16;8.40;99.90
52016;DHT22;38032;53.326;6.472;2022-11-15T03:03:01;8.40;99.90
52016;DHT22;38032;53.326;6.472;2022-11-15T03:05:41;8.50;99.90
52016;DHT22;38032;53.326;6.472;2022-11-15T03:08:12;8.50;99.90
52016;DHT22;38032;53.326;6.472;2022-11-15T03:11:01;8.50;99.90
52016;DHT22;38032;53.326;6.472;2022-11-15T03:16:15;8.60;99.90
52016;DHT22;38032;53.326;6.472;2022-11-15T03:18:46;8.60;99.90
52016;DHT22;38032;53.326;6.472;2022-11-15T03:21:14;8.60;99.90
52016;DHT22;38032;53.326;6.472;2022-11-15T03:23:41;8.60;99.90
52016;DHT22;38032;53.326;6.472;2022-11-15T03:26:11;8.50;99.90
52016;DHT22;38032;53.326;6.472;2022-11-15T03:28:49;8.60;99.90
52016;DHT22;38032;53.326;6.472;2022-11-15T03:31:17;8.50;99.90
52016;DHT22;38032;53.326;6.472;2022-11-15T03:34:04;8.50;99.90
52016;DHT22;38032;53.326;6.472;2022-11-15T03:36:32;8.50;99.90
52016;DHT22;38032;53.326;6.472;2022-11-15T03:39:02;8.50;99.90
52016;DHT22;38032;53.326;6.472;2022-11-15T03:41:48;8.50;99.90
52016;DHT22;38032;53.326;6.472;2022-11-15T03:44:36;8.50;99.90
52016;DHT22;38032;53.326;6.472;2022-11-15T03:47:08;8.50;99.90
52016;DHT22;38032;53.326;6.472;2022-11-15T03:49:38;8.50;99.90
52016;DHT22;38032;53.326;6.472;2022-11-15T03:52:06;8.50;99.90
52016;DHT22;38032;53.326;6.472;2022-11-15T03:54:32;8.50;99.90
52016;DHT22;38032;53.326;6.472;2022-11-15T03:56:58;8.50;99.90
52016;DHT22;38032;53.326;6.472;2022-11-15T03:59:24;8.50;99.90
52016;DHT22;38032;53.326;6.472;2022-11-15T04:01:49;8.50;99.90
52016;DHT22;38032;53.326;6.472;2022-11-15T04:04:15;8.50;99.90
52016;DHT22;38032;53.326;6.472;2022-11-15T04:06:41;8.50;99.90
52016;DHT22;38032;53.326;6.472;2022-11-15T04:09:07;8.50;99.90
52016;DHT22;38032;53.326;6.472;2022-11-15T04:11:33;8.50;99.90
52016;DHT22;38032;53.326;6.472;2022-11-15T04:13:59;8.50;99.90
52016;DHT22;38032;53.326;6.472;2022-11-15T04:16:24;8.50;99.90
52016;DHT22;38032;53.326;6.472;2022-11-15T04:18:50;8.60;99.90
52016;DHT22;38032;53.326;6.472;2022-11-15T04:21:36;8.60;99.90
52016;DHT22;38032;53.326;6.472;2022-11-15T04:24:20;8.60;99.90
52016;DHT22;38032;53.326;6.472;2022-11-15T04:26:46;8.60;99.90
52016;DHT22;38032;53.326;6.472;2022-11-15T04:29:12;8.60;99.90
52016;DHT22;38032;53.326;6.472;2022-11-15T04:31:56;8.60;99.90
52016;DHT22;38032;53.326;6.472;2022-11-15T04:34:22;8.60;99.90
52016;DHT22;38032;53.326;6.472;2022-11-15T04:36:48;8.60;99.90
52016;DHT22;38032;53.326;6.472;2022-11-15T04:39:32;8.60;99.90
52016;DHT22;38032;53.326;6.472;2022-11-15T04:41:58;8.60;99.90
52016;DHT22;38032;53.326;6.472;2022-11-15T04:44:24;8.60;99.90
52016;DHT22;38032;53.326;6.472;2022-11-15T04:46:49;8.70;99.90
52016;DHT22;38032;53.326;6.472;2022-11-15T04:49:15;8.70;99.90
52016;DHT22;38032;53.326;6.472;2022-11-15T04:51:41;8.70;99.90
52016;DHT22;38032;53.326;6.472;2022-11-15T04:54:07;8.70;99.90
52016;DHT22;38032;53.326;6.472;2022-11-15T04:56:33;8.70;99.90
52016;DHT22;38032;53.326;6.472;2022-11-15T04:58:59;8.70;99.90
52016;DHT22;38032;53.326;6.472;2022-11-15T05:01:24;8.70;99.90
52016;DHT22;38032;53.326;6.472;2022-11-15T05:03:50;8.70;99.90
52016;DHT22;38032;53.326;6.472;2022-11-15T05:06:35;8.70;99.90
52016;DHT22;38032;53.326;6.472;2022-11-15T05:09:00;8.80;99.90
52016;DHT22;38032;53.326;6.472;2022-11-15T05:11:26;8.80;99.90
52016;DHT22;38032;53.326;6.472;2022-11-15T05:13:52;8.80;99.90
52016;DHT22;38032;53.326;6.472;2022-11-15T05:16:18;8.80;99.90
52016;DHT22;38032;53.326;6.472;2022-11-15T05:18:44;8.90;99.90
52016;DHT22;38032;53.326;6.472;2022-11-15T05:21:13;8.80;99.90
52016;DHT22;38032;53.326;6.472;2022-11-15T05:23:40;8.90;99.90
52016;DHT22;38032;53.326;6.472;2022-11-15T05:26:07;8.90;99.90
52016;DHT22;38032;53.326;6.472;2022-11-15T05:28:33;8.90;99.90
52016;DHT22;38032;53.326;6.472;2022-11-15T05:31:03;8.90;99.90
52016;DHT22;38032;53.326;6.472;2022-11-15T05:33:30;8.90;99.90
52016;DHT22;38032;53.326;6.472;2022-11-15T05:36:02;9.00;99.90
52016;DHT22;38032;53.326;6.472;2022-11-15T05:38:30;9.00;99.90
52016;DHT22;38032;53.326;6.472;2022-11-15T05:40:56;9.00;99.90
52016;DHT22;38032;53.326;6.472;2022-11-15T05:43:22;9.00;99.90
52016;DHT22;38032;53.326;6.472;2022-11-15T05:45:49;9.00;99.90
52016;DHT22;38032;53.326;6.472;2022-11-15T05:48:15;9.00;99.90
52016;DHT22;38032;53.326;6.472;2022-11-15T05:50:43;9.10;99.90
52016;DHT22;38032;53.326;6.472;2022-11-15T05:53:14;9.10;99.90
52016;DHT22;38032;53.326;6.472;2022-11-15T05:55:40;9.10;99.90
52016;DHT22;38032;53.326;6.472;2022-11-15T05:58:07;9.10;99.90
52016;DHT22;38032;53.326;6.472;2022-11-15T06:00:33;9.20;99.90
52016;DHT22;38032;53.326;6.472;2022-11-15T06:02:59;9.20;99.90
52016;DHT22;38032;53.326;6.472;2022-11-15T06:05:25;9.20;99.90
52016;DHT22;38032;53.326;6.472;2022-11-15T06:07:51;9.30;99.90
52016;DHT22;38032;53.326;6.472;2022-11-15T06:10:17;9.30;99.90
52016;DHT22;38032;53.326;6.472;2022-11-15T06:12:43;9.30;99.90
52016;DHT22;38032;53.326;6.472;2022-11-15T06:15:09;9.30;99.90
52016;DHT22;38032;53.326;6.472;2022-11-15T06:17:35;9.30;99.90
52016;DHT22;38032;53.326;6.472;2022-11-15T06:20:00;9.30;99.90
52016;DHT22;38032;53.326;6.472;2022-11-15T06:22:26;9.30;99.90
52016;DHT22;38032;53.326;6.472;2022-11-15T06:24:52;9.40;99.90
52016;DHT22;38032;53.326;6.472;2022-11-15T06:27:18;9.40;99.90
52016;DHT22;38032;53.326;6.472;2022-11-15T06:29:45;9.40;99.90
52016;DHT22;38032;53.326;6.472;2022-11-15T06:32:11;9.40;99.90
52016;DHT22;38032;53.326;6.472;2022-11-15T06:34:36;9.40;99.90
52016;DHT22;38032;53.326;6.472;2022-11-15T06:37:03;9.50;99.90
52016;DHT22;38032;53.326;6.472;2022-11-15T06:39:28;9.40;99.90
52016;DHT22;38032;53.326;6.472;2022-11-15T06:41:57;9.50;99.90
52016;DHT22;38032;53.326;6.472;2022-11-15T06:44:23;9.40;99.90
52016;DHT22;38032;53.326;6.472;2022-11-15T06:46:49;9.40;99.90
52016;DHT22;38032;53.326;6.472;2022-11-15T06:49:15;9.30;99.90
52016;DHT22;38032;53.326;6.472;2022-11-15T06:51:41;9.20;99.90
52016;DHT22;38032;53.326;6.472;2022-11-15T06:54:06;9.20;99.90
52016;DHT22;38032;53.326;6.472;2022-11-15T06:56:34;9.20;99.90
52016;DHT22;38032;53.326;6.472;2022-11-15T06:59:00;9.20;99.90
52016;DHT22;38032;53.326;6.472;2022-11-15T07:01:26;9.10;99.90
52016;DHT22;38032;53.326;6.472;2022-11-15T07:03:52;9.20;99.90
52016;DHT22;38032;53.326;6.472;2022-11-15T07:06:18;9.20;99.90
52016;DHT22;38032;53.326;6.472;2022-11-15T07:08:43;9.30;99.90
52016;DHT22;38032;53.326;6.472;2022-11-15T07:11:09;9.30;99.90
52016;DHT22;38032;53.326;6.472;2022-11-15T07:13:36;9.40;99.90
52016;DHT22;38032;53.326;6.472;2022-11-15T07:16:04;9.40;99.90
52016;DHT22;38032;53.326;6.472;2022-11-15T07:18:31;9.50;99.90
52016;DHT22;38032;53.326;6.472;2022-11-15T07:21:03;9.50;99.90
52016;DHT22;38032;53.326;6.472;2022-11-15T07:23:30;9.60;99.90
52016;DHT22;38032;53.326;6.472;2022-11-15T07:25:57;9.70;99.90
52016;DHT22;38032;53.326;6.472;2022-11-15T07:28:25;9.70;99.90
52016;DHT22;38032;53.326;6.472;2022-11-15T07:30:51;9.80;99.90
52016;DHT22;38032;53.326;6.472;2022-11-15T07:33:17;9.80;99.90
52016;DHT22;38032;53.326;6.472;2022-11-15T07:35:43;9.80;99.90
52016;DHT22;38032;53.326;6.472;2022-11-15T07:38:11;9.90;99.90
52016;DHT22;38032;53.326;6.472;2022-11-15T07:40:37;9.90;99.90
52016;DHT22;38032;53.326;6.472;2022-11-15T07:43:05;10.00;99.90
52016;DHT22;38032;53.326;6.472;2022-11-15T07:45:32;10.00;99.90
52016;DHT22;38032;53.326;6.472;2022-11-15T07:48:00;10.10;99.90
52016;DHT22;38032;53.326;6.472;2022-11-15T07:50:26;10.10;99.90
52016;DHT22;38032;53.326;6.472;2022-11-15T07:52:54;10.10;99.90
52016;DHT22;38032;53.326;6.472;2022-11-15T07:55:21;10.20;99.90
52016;DHT22;38032;53.326;6.472;2022-11-15T07:57:48;10.20;99.90
52016;DHT22;38032;53.326;6.472;2022-11-15T08:00:14;10.20;99.90
52016;DHT22;38032;53.326;6.472;2022-11-15T08:02:40;10.30;99.90
52016;DHT22;38032;53.326;6.472;2022-11-15T08:05:07;10.30;99.90
52016;DHT22;38032;53.326;6.472;2022-11-15T08:07:33;10.30;99.90
52016;DHT22;38032;53.326;6.472;2022-11-15T08:09:59;10.40;99.90
52016;DHT22;38032;53.326;6.472;2022-11-15T08:12:27;10.40;99.90
52016;DHT22;38032;53.326;6.472;2022-11-15T08:14:55;10.40;99.90
52016;DHT22;38032;53.326;6.472;2022-11-15T08:17:22;10.40;99.90
52016;DHT22;38032;53.326;6.472;2022-11-15T08:19:48;10.50;99.90
52016;DHT22;38032;53.326;6.472;2022-11-15T08:22:14;10.50;99.90
52016;DHT22;38032;53.326;6.472;2022-11-15T08:24:40;10.50;99.90
52016;DHT22;38032;53.326;6.472;2022-11-15T08:27:06;10.60;99.90
52016;DHT22;38032;53.326;6.472;2022-11-15T08:29:44;10.60;99.90
52016;DHT22;38032;53.326;6.472;2022-11-15T08:32:10;10.70;99.90
52016;DHT22;38032;53.326;6.472;2022-11-15T08:34:37;10.70;99.90
52016;DHT22;38032;53.326;6.472;2022-11-15T08:37:04;10.70;99.90
52016;DHT22;38032;53.326;6.472;2022-11-15T08:39:30;10.70;99.90
52016;DHT22;38032;53.326;6.472;2022-11-15T08:41:56;10.80;99.90
52016;DHT22;38032;53.326;6.472;2022-11-15T08:44:22;10.80;99.90
52016;DHT22;38032;53.326;6.472;2022-11-15T08:46:49;10.80;99.90
52016;DHT22;38032;53.326;6.472;2022-11-15T08:49:16;10.90;99.90
52016;DHT22;38032;53.326;6.472;2022-11-15T08:51:42;11.00;99.90
52016;DHT22;38032;53.326;6.472;2022-11-15T08:54:08;11.00;99.90
52016;DHT22;38032;53.326;6.472;2022-11-15T08:56:34;11.00;99.90
52016;DHT22;38032;53.326;6.472;2022-11-15T08:58:59;11.20;99.90
52016;DHT22;38032;53.326;6.472;2022-11-15T09:01:25;11.30;99.90
52016;DHT22;38032;53.326;6.472;2022-11-15T09:03:51;11.40;99.90
52016;DHT22;38032;53.326;6.472;2022-11-15T09:06:18;11.40;99.90
52016;DHT22;38032;53.326;6.472;2022-11-15T09:08:44;11.40;99.90
52016;DHT22;38032;53.326;6.472;2022-11-15T09:11:10;11.40;99.90
52016;DHT22;38032;53.326;6.472;2022-11-15T09:13:37;11.50;99.90
52016;DHT22;38032;53.326;6.472;2022-11-15T09:16:03;11.50;99.90
52016;DHT22;38032;53.326;6.472;2022-11-15T09:18:30;11.50;99.90
52016;DHT22;38032;53.326;6.472;2022-11-15T09:20:57;11.60;99.90
52016;DHT22;38032;53.326;6.472;2022-11-15T09:23:24;11.70;99.90
52016;DHT22;38032;53.326;6.472;2022-11-15T09:25:51;11.70;99.90
52016;DHT22;38032;53.326;6.472;2022-11-15T09:28:17;11.70;99.90
52016;DHT22;38032;53.326;6.472;2022-11-15T09:30:43;11.80;99.90
52016;DHT22;38032;53.326;6.472;2022-11-15T09:33:10;11.80;99.90
52016;DHT22;38032;53.326;6.472;2022-11-15T09:35:36;12.50;99.90
52016;DHT22;38032;53.326;6.472;2022-11-15T09:38:03;11.90;99.90
52016;DHT22;38032;53.326;6.472;2022-11-15T09:40:31;11.90;99.90
52016;DHT22;38032;53.326;6.472;2022-11-15T09:45:43;12.00;99.90
52016;DHT22;38032;53.326;6.472;2022-11-15T09:48:35;12.00;99.90
52016;DHT22;38032;53.326;6.472;2022-11-15T09:51:06;12.00;99.90
52016;DHT22;38032;53.326;6.472;2022-11-15T09:53:49;12.00;99.90
52016;DHT22;38032;53.326;6.472;2022-11-15T09:56:20;11.90;99.90
52016;DHT22;38032;53.326;6.472;2022-11-15T10:02:11;11.90;99.90
52016;DHT22;38032;53.326;6.472;2022-11-15T10:04:41;11.90;99.90
52016;DHT22;38032;53.326;6.472;2022-11-15T10:07:28;12.00;99.90
52016;DHT22;38032;53.326;6.472;2022-11-15T10:12:27;12.20;99.90
52016;DHT22;38032;53.326;6.472;2022-11-15T10:15:02;12.30;99.90
52016;DHT22;38032;53.326;6.472;2022-11-15T10:17:49;12.40;99.90
52016;DHT22;38032;53.326;6.472;2022-11-15T10:20:26;12.40;99.90
52016;DHT22;38032;53.326;6.472;2022-11-15T10:22:58;12.50;99.90
52016;DHT22;38032;53.326;6.472;2022-11-15T10:25:32;12.50;99.90
52016;DHT22;38032;53.326;6.472;2022-11-15T10:28:01;12.50;99.90
52016;DHT22;38032;53.326;6.472;2022-11-15T10:32:58;12.50;99.90
52016;DHT22;38032;53.326;6.472;2022-11-15T10:35:29;12.60;99.90
52016;DHT22;38032;53.326;6.472;2022-11-15T10:38:07;12.60;99.90
52016;DHT22;38032;53.326;6.472;2022-11-15T10:40:34;12.70;99.90
52016;DHT22;38032;53.326;6.472;2022-11-15T10:45:35;12.80;99.90
52016;DHT22;38032;53.326;6.472;2022-11-15T10:50:39;12.90;99.90
52016;DHT22;38032;53.326;6.472;2022-11-15T10:53:23;12.90;99.90
52016;DHT22;38032;53.326;6.472;2022-11-15T10:55:52;13.00;99.90
52016;DHT22;38032;53.326;6.472;2022-11-15T10:58:30;13.10;99.90
52016;DHT22;38032;53.326;6.472;2022-11-15T11:03:39;13.30;99.90
52016;DHT22;38032;53.326;6.472;2022-11-15T11:06:12;13.30;99.90
52016;DHT22;38032;53.326;6.472;2022-11-15T11:08:38;13.40;99.90
52016;DHT22;38032;53.326;6.472;2022-11-15T11:11:05;13.30;99.90
52016;DHT22;38032;53.326;6.472;2022-11-15T11:13:38;13.30;99.90
52016;DHT22;38032;53.326;6.472;2022-11-15T11:18:55;13.30;99.90
52016;DHT22;38032;53.326;6.472;2022-11-15T11:21:39;13.20;99.90
52016;DHT22;38032;53.326;6.472;2022-11-15T11:24:15;13.30;99.90
52016;DHT22;38032;53.326;6.472;2022-11-15T11:29:20;13.30;99.90
52016;DHT22;38032;53.326;6.472;2022-11-15T11:31:58;13.30;99.90
52016;DHT22;38032;53.326;6.472;2022-11-15T11:34:33;13.40;99.90
52016;DHT22;38032;53.326;6.472;2022-11-15T11:39:56;13.50;99.90
52016;DHT22;38032;53.326;6.472;2022-11-15T11:42:43;13.60;99.90
52016;DHT22;38032;53.326;6.472;2022-11-15T11:45:19;13.60;99.90
52016;DHT22;38032;53.326;6.472;2022-11-15T11:48:13;13.70;99.90
52016;DHT22;38032;53.326;6.472;2022-11-15T11:50:42;13.70;99.90
52016;DHT22;38032;53.326;6.472;2022-11-15T11:53:27;13.80;99.90
52016;DHT22;38032;53.326;6.472;2022-11-15T11:55:57;13.90;99.90
52016;DHT22;38032;53.326;6.472;2022-11-15T11:58:34;13.90;99.90
52016;DHT22;38032;53.326;6.472;2022-11-15T12:06:46;14.40;99.90
52016;DHT22;38032;53.326;6.472;2022-11-15T12:09:30;14.50;99.90
52016;DHT22;38032;53.326;6.472;2022-11-15T12:12:17;14.50;99.90
52016;DHT22;38032;53.326;6.472;2022-11-15T12:14:51;14.50;99.90
52016;DHT22;38032;53.326;6.472;2022-11-15T12:17:23;14.40;99.90
52016;DHT22;38032;53.326;6.472;2022-11-15T12:19:51;14.40;99.90
52016;DHT22;38032;53.326;6.472;2022-11-15T12:22:23;14.40;99.90
52016;DHT22;38032;53.326;6.472;2022-11-15T12:25:02;14.30;99.90
52016;DHT22;38032;53.326;6.472;2022-11-15T12:27:40;14.30;99.90
52016;DHT22;38032;53.326;6.472;2022-11-15T12:30:13;14.30;99.90
52016;DHT22;38032;53.326;6.472;2022-11-15T12:32:57;14.20;99.90
52016;DHT22;38032;53.326;6.472;2022-11-15T12:35:39;14.20;99.90
52016;DHT22;38032;53.326;6.472;2022-11-15T12:38:10;14.20;99.90
52016;DHT22;38032;53.326;6.472;2022-11-15T12:40:39;14.10;99.90
52016;DHT22;38032;53.326;6.472;2022-11-15T12:43:38;14.00;99.90
52016;DHT22;38032;53.326;6.472;2022-11-15T12:46:10;14.00;99.90
52016;DHT22;38032;53.326;6.472;2022-11-15T12:51:03;14.00;99.90
52016;DHT22;38032;53.326;6.472;2022-11-15T12:53:31;14.00;99.90
52016;DHT22;38032;53.326;6.472;2022-11-15T12:58:57;14.00;99.90
52016;DHT22;38032;53.326;6.472;2022-11-15T13:06:48;13.80;99.90
52016;DHT22;38032;53.326;6.472;2022-11-15T13:12:08;13.80;99.90
52016;DHT22;38032;53.326;6.472;2022-11-15T13:14:41;13.80;99.90
52016;DHT22;38032;53.326;6.472;2022-11-15T13:19:54;13.90;99.90
52016;DHT22;38032;53.326;6.472;2022-11-15T13:22:22;14.00;99.90
52016;DHT22;38032;53.326;6.472;2022-11-15T13:25:16;14.10;99.90
52016;DHT22;38032;53.326;6.472;2022-11-15T13:27:47;14.10;99.90
52016;DHT22;38032;53.326;6.472;2022-11-15T13:30:19;14.10;99.90
52016;DHT22;38032;53.326;6.472;2022-11-15T13:32:45;14.10;99.90
52016;DHT22;38032;53.326;6.472;2022-11-15T13:35:20;14.10;99.90
52016;DHT22;38032;53.326;6.472;2022-11-15T13:37:46;14.10;99.90
52016;DHT22;38032;53.326;6.472;2022-11-15T13:40:26;14.10;99.90
52016;DHT22;38032;53.326;6.472;2022-11-15T13:42:56;14.10;99.90
52016;DHT22;38032;53.326;6.472;2022-11-15T13:45:23;14.00;99.90
52016;DHT22;38032;53.326;6.472;2022-11-15T13:47:55;14.00;99.90
52016;DHT22;38032;53.326;6.472;2022-11-15T13:50:26;14.00;99.90
52016;DHT22;38032;53.326;6.472;2022-11-15T13:52:57;13.90;99.90
52016;DHT22;38032;53.326;6.472;2022-11-15T13:55:25;13.90;99.90
52016;DHT22;38032;53.326;6.472;2022-11-15T13:57:55;13.80;99.90
52016;DHT22;38032;53.326;6.472;2022-11-15T14:00:30;13.80;99.90
52016;DHT22;38032;53.326;6.472;2022-11-15T14:02:57;13.70;99.90
52016;DHT22;38032;53.326;6.472;2022-11-15T14:05:30;13.60;99.90
52016;DHT22;38032;53.326;6.472;2022-11-15T14:07:58;13.60;99.90
52016;DHT22;38032;53.326;6.472;2022-11-15T14:10:33;13.60;99.90
52016;DHT22;38032;53.326;6.472;2022-11-15T14:13:00;13.50;99.90
52016;DHT22;38032;53.326;6.472;2022-11-15T14:15:29;13.50;99.90
52016;DHT22;38032;53.326;6.472;2022-11-15T14:17:56;13.40;99.90
52016;DHT22;38032;53.326;6.472;2022-11-15T14:22:55;13.30;99.90
52016;DHT22;38032;53.326;6.472;2022-11-15T14:25:23;13.20;99.90
52016;DHT22;38032;53.326;6.472;2022-11-15T14:30:34;13.10;99.90
52016;DHT22;38032;53.326;6.472;2022-11-15T14:33:01;13.00;99.90
52016;DHT22;38032;53.326;6.472;2022-11-15T14:35:28;13.00;99.90
52016;DHT22;38032;53.326;6.472;2022-11-15T14:37:54;12.90;99.90
52016;DHT22;38032;53.326;6.472;2022-11-15T14:40:21;12.80;99.90
52016;DHT22;38032;53.326;6.472;2022-11-15T14:42:49;12.80;99.90
52016;DHT22;38032;53.326;6.472;2022-11-15T14:45:18;12.70;99.90
52016;DHT22;38032;53.326;6.472;2022-11-15T14:47:44;12.70;99.90
52016;DHT22;38032;53.326;6.472;2022-11-15T14:50:16;12.60;99.90
52016;DHT22;38032;53.326;6.472;2022-11-15T14:52:43;12.60;99.90
52016;DHT22;38032;53.326;6.472;2022-11-15T14:55:20;12.50;99.90
52016;DHT22;38032;53.326;6.472;2022-11-15T14:57:46;12.50;99.90
52016;DHT22;38032;53.326;6.472;2022-11-15T15:00:13;12.40;99.90
52016;DHT22;38032;53.326;6.472;2022-11-15T15:02:40;12.30;99.90
52016;DHT22;38032;53.326;6.472;2022-11-15T15:05:18;12.30;99.90
52016;DHT22;38032;53.326;6.472;2022-11-15T15:07:44;12.20;99.90
52016;DHT22;38032;53.326;6.472;2022-11-15T15:10:11;12.20;99.90
52016;DHT22;38032;53.326;6.472;2022-11-15T15:12:38;12.10;99.90
52016;DHT22;38032;53.326;6.472;2022-11-15T15:15:05;12.00;99.90
52016;DHT22;38032;53.326;6.472;2022-11-15T15:17:31;12.00;99.90
52016;DHT22;38032;53.326;6.472;2022-11-15T15:19:57;12.10;99.90
52016;DHT22;38032;53.326;6.472;2022-11-15T15:22:23;11.90;99.90
52016;DHT22;38032;53.326;6.472;2022-11-15T15:24:53;11.90;99.90
52016;DHT22;38032;53.326;6.472;2022-11-15T15:27:19;11.80;99.90
52016;DHT22;38032;53.326;6.472;2022-11-15T15:29:44;11.80;99.90
52016;DHT22;38032;53.326;6.472;2022-11-15T15:32:10;11.70;99.90
52016;DHT22;38032;53.326;6.472;2022-11-15T15:34:37;11.60;99.90
52016;DHT22;38032;53.326;6.472;2022-11-15T15:39:50;11.60;99.90
52016;DHT22;38032;53.326;6.472;2022-11-15T15:42:17;11.50;99.90
52016;DHT22;38032;53.326;6.472;2022-11-15T15:44:43;11.30;99.90
52016;DHT22;38032;53.326;6.472;2022-11-15T15:47:19;11.30;99.90
52016;DHT22;38032;53.326;6.472;2022-11-15T15:49:45;11.10;99.90
52016;DHT22;38032;53.326;6.472;2022-11-15T15:52:11;11.10;99.90
52016;DHT22;38032;53.326;6.472;2022-11-15T15:54:38;11.00;99.90
52016;DHT22;38032;53.326;6.472;2022-11-15T15:57:04;11.00;99.90
52016;DHT22;38032;53.326;6.472;2022-11-15T15:59:30;10.90;99.90
52016;DHT22;38032;53.326;6.472;2022-11-15T16:01:56;10.90;99.90
52016;DHT22;38032;53.326;6.472;2022-11-15T16:04:23;10.80;99.90
52016;DHT22;38032;53.326;6.472;2022-11-15T16:06:49;10.90;99.90
52016;DHT22;38032;53.326;6.472;2022-11-15T16:09:19;10.80;99.90
52016;DHT22;38032;53.326;6.472;2022-11-15T16:12:05;10.80;99.90
52016;DHT22;38032;53.326;6.472;2022-11-15T16:14:31;10.70;99.90
52016;DHT22;38032;53.326;6.472;2022-11-15T16:16:57;10.70;99.90
52016;DHT22;38032;53.326;6.472;2022-11-15T16:19:23;10.70;99.90
52016;DHT22;38032;53.326;6.472;2022-11-15T16:21:50;10.60;99.90
52016;DHT22;38032;53.326;6.472;2022-11-15T16:24:18;10.60;99.90
52016;DHT22;38032;53.326;6.472;2022-11-15T16:26:45;10.50;99.90
52016;DHT22;38032;53.326;6.472;2022-11-15T16:29:11;10.50;99.90
52016;DHT22;38032;53.326;6.472;2022-11-15T16:31:37;10.40;99.90
52016;DHT22;38032;53.326;6.472;2022-11-15T16:34:03;10.40;99.90
52016;DHT22;38032;53.326;6.472;2022-11-15T16:36:32;10.40;99.90
52016;DHT22;38032;53.326;6.472;2022-11-15T16:38:59;10.40;99.90
52016;DHT22;38032;53.326;6.472;2022-11-15T16:41:25;10.30;99.90
52016;DHT22;38032;53.326;6.472;2022-11-15T16:43:51;10.30;99.90
52016;DHT22;38032;53.326;6.472;2022-11-15T16:46:20;10.30;99.90
52016;DHT22;38032;53.326;6.472;2022-11-15T16:48:47;10.30;99.90
52016;DHT22;38032;53.326;6.472;2022-11-15T16:51:13;10.20;99.90
52016;DHT22;38032;53.326;6.472;2022-11-15T16:53:40;10.30;99.90
52016;DHT22;38032;53.326;6.472;2022-11-15T16:56:17;10.20;99.90
52016;DHT22;38032;53.326;6.472;2022-11-15T16:58:43;10.20;99.90
52016;DHT22;38032;53.326;6.472;2022-11-15T17:01:17;10.30;99.90
52016;DHT22;38032;53.326;6.472;2022-11-15T17:03:43;10.30;99.90